METAR Data
IDs: Format: Raw Decoded Include TAF

Data at: 0239 UTC 01 Feb 2023

KPGV 010235Z AUTO 14004KT 4SM -RA OVC003 12/12 A3012 RMK AO2 P0001
KPGV 010215Z AUTO 00000KT 4SM BR OVC003 12/12 A3013 RMK AO2
KPGV 010155Z AUTO 00000KT 4SM BR OVC003 12/12 A3013 RMK AO2
KPGV 010135Z AUTO 00000KT 4SM BR OVC005 12/12 A3013 RMK AO2
KPGV 010115Z AUTO 00000KT 4SM BR OVC005 12/12 A3013 RMK AO2
KPGV 010055Z AUTO 00000KT 5SM BR OVC005 13/12 A3012 RMK AO2
KPGV 010035Z AUTO 35003KT 5SM BR OVC007 13/13 A3014 RMK AO2
KPGV 010015Z AUTO 34003KT 5SM BR BKN009 OVC120 13/12 A3012 RMK AO2
KPGV 312355Z AUTO 17003KT 7SM BKN007 OVC120 13/13 A3008 RMK AO2
KPGV 312335Z AUTO 00000KT 5SM BR OVC007 13/13 A3009 RMK AO2
KPGV 312315Z AUTO 04004KT 7SM OVC007 13/13 A3008 RMK AO2
KPGV 312255Z AUTO 00000KT 7SM -RA SCT007 SCT075 OVC080 13/13 A3009 RMK AO2
KPGV 312235Z AUTO 15006KT 7SM SCT005 OVC075 13/13 A3008 RMK AO2
KPGV 312215Z AUTO 00000KT 7SM BKN007 OVC075 13/13 A3011 RMK AO2
KPGV 312155Z AUTO 00000KT 5SM BR OVC007 13/13 A3012 RMK AO2
KPGV 312135Z AUTO 00000KT 7SM OVC007 13/13 A3013 RMK AO2
KPGV 312115Z AUTO 00000KT 7SM OVC007 13/13 A3012 RMK AO2
KPGV 312055Z AUTO 00000KT 7SM DZ OVC007 13/13 A3011 RMK AO2
KPGV 312035Z AUTO 00000KT 7SM RA OVC007 13/13 A3013 RMK AO2
KPGV 312015Z AUTO 00000KT 10SM -RA OVC007 13/13 A3014 RMK AO2
KPGV 311955Z AUTO 00000KT 10SM OVC007 13/13 A3012 RMK AO2
KPGV 311935Z AUTO 21003KT 10SM OVC007 13/13 A3011 RMK AO2
KPGV 311915Z AUTO 00000KT 10SM OVC007 13/13 A3012 RMK AO2
KPGV 311855Z AUTO 20004KT 10SM OVC007 13/13 A3013 RMK AO2
KPGV 311835Z AUTO 00000KT 10SM OVC007 13/13 A3013 RMK AO2
KPGV 311815Z AUTO 21003KT 10SM OVC005 13/13 A3015 RMK AO2
KPGV 311755Z AUTO 20004KT 10SM OVC005 13/13 A3016 RMK AO2
KPGV 311735Z AUTO 18003KT 10SM OVC005 13/13 A3016 RMK AO2
KPGV 311715Z AUTO 00000KT 10SM OVC005 13/12 A3018 RMK AO2
KPGV 311655Z AUTO 19003KT 10SM OVC005 12/12 A3018 RMK AO2
KPGV 311635Z AUTO 00000KT 10SM OVC005 12/12 A3021 RMK AO2
KPGV 311615Z AUTO 21003KT 10SM OVC005 12/12 A3021 RMK AO2
KPGV 311555Z AUTO 21003KT 10SM OVC005 12/12 A3022 RMK AO2
KPGV 311535Z AUTO 20003KT 7SM OVC005 12/12 A3022 RMK AO2
KPGV 311515Z AUTO 00000KT 5SM BR OVC005 12/12 A3023 RMK AO2
KPGV 311455Z AUTO 00000KT 7SM OVC005 11/11 A3023 RMK AO2
KPGV 311435Z AUTO 00000KT 10SM OVC005 11/11 A3022 RMK AO2
KPGV 311415Z AUTO 00000KT 5SM BR OVC003 11/11 A3021 RMK AO2
KPGV 311355Z AUTO 22005KT 3SM BR OVC003 11/11 A3022 RMK AO2
KPGV 311335Z AUTO 00000KT 1SM BR OVC003 11/11 A3022 RMK AO2
KPGV 311315Z AUTO 00000KT 3/4SM BR OVC003 11/11 A3021 RMK AO2
KPGV 311255Z AUTO 00000KT 3/4SM BR OVC003 11/11 A3019 RMK AO2
KPGV 311235Z AUTO 00000KT 1 1/2SM BR OVC003 11/11 A3019 RMK AO2
KPGV 311215Z AUTO 25003KT 2 1/2SM BR OVC003 11/11 A3019 RMK AO2
KPGV 311155Z AUTO 25003KT 3SM BR OVC003 11/11 A3019 RMK AO2
KPGV 311135Z AUTO 24004KT 1 1/2SM BR OVC003 11/11 A3019 RMK AO2
KPGV 311115Z AUTO 23005KT 1 1/4SM BR OVC003 11/11 A3019 RMK AO2
KPGV 311055Z AUTO 00000KT 1SM BR OVC003 11/11 A3018 RMK AO2
KPGV 311035Z AUTO 00000KT 1SM BR OVC003 11/11 A3018 RMK AO2
KPGV 311015Z AUTO 22003KT 3/4SM BR OVC003 11/11 A3018 RMK AO2
KPGV 310955Z AUTO 00000KT 1SM BR OVC003 11/10 A3017 RMK AO2
KPGV 310935Z AUTO 00000KT 3/4SM BR OVC003 11/10 A3017 RMK AO2
KPGV 310915Z AUTO 00000KT 1/2SM FG OVC003 11/11 A3017 RMK AO2
KPGV 310855Z AUTO 00000KT 1/2SM FG OVC003 11/11 A3016 RMK AO2
KPGV 310835Z AUTO 00000KT 1/2SM FG OVC003 11/11 A3016 RMK AO2
KPGV 310815Z AUTO 00000KT 1/4SM FG OVC003 11/11 A3016 RMK AO2
KPGV 310755Z AUTO 00000KT 1/2SM FG OVC003 11/11 A3016 RMK AO2
KPGV 310735Z AUTO 00000KT 1/4SM FG OVC003 11/11 A3016 RMK AO2
KPGV 310715Z AUTO 00000KT 1/2SM FG OVC003 11/11 A3017 RMK AO2
KPGV 310655Z AUTO 00000KT 3/4SM BR OVC003 11/11 A3017 RMK AO2
KPGV 310635Z AUTO 23004KT 1SM BR OVC003 11/11 A3017 RMK AO2
KPGV 310615Z AUTO 21004KT 3/4SM BR OVC003 11/11 A3017 RMK AO2
KPGV 310555Z AUTO 22004KT 1SM BR OVC003 11/11 A3016 RMK AO2
KPGV 310535Z AUTO 21005KT 3/4SM BR OVC003 11/11 A3017 RMK AO2
KPGV 310515Z AUTO 20005KT 5SM BR OVC003 11/11 A3018 RMK AO2
KPGV 310455Z AUTO 21003KT 10SM OVC005 12/12 A3019 RMK AO2
KPGV 310435Z AUTO 23004KT 10SM OVC005 12/12 A3019 RMK AO2
KPGV 310415Z AUTO 20003KT 10SM OVC007 12/12 A3019 RMK AO2
KPGV 310355Z AUTO 20004KT 10SM OVC007 12/12 A3020 RMK AO2
KPGV 310335Z AUTO 21004KT 10SM OVC007 12/12 A3021 RMK AO2
KPGV 310315Z AUTO 22005KT 10SM OVC007 12/12 A3020 RMK AO2
KPGV 310255Z AUTO 21003KT 10SM OVC009 12/12 A3019 RMK AO2
KPGV 310235Z AUTO 20003KT 10SM OVC009 12/12 A3019 RMK AO2
KPGV 310215Z AUTO 00000KT 10SM OVC009 12/12 A3020 RMK AO2
KPGV 310155Z AUTO 00000KT 10SM OVC011 12/12 A3019 RMK AO2
KPGV 310135Z AUTO 14003KT 10SM OVC013 13/13 A3018 RMK AO2
KPGV 310115Z AUTO 19003KT 10SM OVC013 12/12 A3018 RMK AO2
KPGV 310055Z AUTO 00000KT 10SM OVC011 13/12 A3018 RMK AO2
KPGV 310035Z AUTO 00000KT 10SM OVC011 13/13 A3018 RMK AO2
KPGV 310015Z AUTO 03003KT 10SM OVC011 13/13 A3018 RMK AO2
KPGV 302355Z AUTO 00000KT 10SM OVC011 13/13 A3018 RMK AO2
KPGV 302335Z AUTO 00000KT 10SM OVC011 13/13 A3016 RMK AO2
KPGV 302315Z AUTO 00000KT 10SM OVC011 13/13 A3016 RMK AO2
KPGV 302255Z AUTO 00000KT 10SM OVC007 13/13 A3016 RMK AO2
KPGV 302235Z AUTO 00000KT 10SM OVC007 13/13 A3016 RMK AO2
KPGV 302215Z AUTO 00000KT 10SM OVC007 13/13 A3016 RMK AO2
KPGV 302155Z AUTO 00000KT 10SM OVC007 13/13 A3016 RMK AO2
KPGV 302135Z AUTO 00000KT 10SM OVC007 13/13 A3015 RMK AO2
KPGV 302115Z AUTO 00000KT 10SM OVC007 13/13 A3015 RMK AO2
KPGV 302055Z AUTO 00000KT 10SM OVC005 13/13 A3014 RMK AO2
KPGV 302035Z AUTO 00000KT 10SM OVC005 13/13 A3014 RMK AO2
KPGV 302015Z AUTO 00000KT 10SM OVC005 13/13 A3013 RMK AO2
KPGV 301955Z AUTO 00000KT 10SM OVC005 13/13 A3013 RMK AO2
KPGV 301935Z AUTO 00000KT 10SM OVC005 12/12 A3013 RMK AO2
KPGV 301915Z AUTO 00000KT 10SM OVC005 12/12 A3013 RMK AO2
KPGV 301855Z AUTO 00000KT 10SM OVC003 12/12 A3013 RMK AO2
KPGV 301835Z AUTO 00000KT 4SM BR OVC003 12/12 A3013 RMK AO2
KPGV 301815Z AUTO 00000KT 3SM BR OVC003 12/12 A3014 RMK AO2
KPGV 301755Z AUTO 34004KT 10SM OVC003 12/12 A3016 RMK AO2
KPGV 301735Z AUTO 00000KT 7SM OVC003 12/12 A3016 RMK AO2
KPGV 301715Z AUTO 00000KT 5SM BR OVC003 12/11 A3017 RMK AO2
KPGV 301655Z AUTO 00000KT 5SM BR OVC005 11/11 A3019 RMK AO2
KPGV 301635Z AUTO 36003KT 3SM BR OVC005 11/11 A3020 RMK AO2
KPGV 301615Z AUTO 00000KT 7SM OVC005 11/11 A3021 RMK AO2
KPGV 301555Z AUTO 00000KT 10SM OVC005 11/11 A3021 RMK AO2
KPGV 301535Z AUTO 00000KT 10SM OVC005 11/11 A3021 RMK AO2
KPGV 301515Z AUTO 00000KT 10SM OVC005 11/11 A3021 RMK AO2
KPGV 301455Z AUTO 00000KT 10SM OVC005 11/11 A3019 RMK AO2